sensor_id;sensor_type;location;lat;lon;timestamp;pressure;altitude;pressure_sealevel;temperature;humidity
20394;BME280;10356;50.544;9.642;2023-04-22T00:00:23;97670.06;;;10.04;95.25
20394;BME280;10356;50.544;9.642;2023-04-22T00:02:49;97672.94;;;10.01;95.24
20394;BME280;10356;50.544;9.642;2023-04-22T00:05:18;97670.47;;;9.99;95.30
20394;BME280;10356;50.544;9.642;2023-04-22T00:07:44;97680.06;;;9.99;95.28
20394;BME280;10356;50.544;9.642;2023-04-22T00:10:11;97672.91;;;9.91;95.63
20394;BME280;10356;50.544;9.642;2023-04-22T00:12:37;97675.59;;;9.90;95.45
20394;BME280;10356;50.544;9.642;2023-04-22T00:15:05;97666.16;;;9.89;95.49
20394;BME280;10356;50.544;9.642;2023-04-22T00:17:32;97670.91;;;9.84;95.56
20394;BME280;10356;50.544;9.642;2023-04-22T00:19:58;97670.66;;;9.87;95.38
20394;BME280;10356;50.544;9.642;2023-04-22T00:22:27;97663.09;;;9.84;95.69
20394;BME280;10356;50.544;9.642;2023-04-22T00:24:53;97653.81;;;9.81;95.59
20394;BME280;10356;50.544;9.642;2023-04-22T00:27:20;97658.88;;;9.83;95.66
20394;BME280;10356;50.544;9.642;2023-04-22T00:29:46;97650.09;;;9.84;95.60
20394;BME280;10356;50.544;9.642;2023-04-22T00:32:12;97656.13;;;9.84;95.72
20394;BME280;10356;50.544;9.642;2023-04-22T00:34:39;97661.34;;;9.84;95.86
20394;BME280;10356;50.544;9.642;2023-04-22T00:37:05;97665.00;;;9.82;95.86
20394;BME280;10356;50.544;9.642;2023-04-22T00:39:33;97657.22;;;9.82;96.09
20394;BME280;10356;50.544;9.642;2023-04-22T00:42:04;97664.06;;;9.83;96.35
20394;BME280;10356;50.544;9.642;2023-04-22T00:44:31;97657.66;;;9.87;96.41
20394;BME280;10356;50.544;9.642;2023-04-22T00:46:58;97655.75;;;9.89;96.39
20394;BME280;10356;50.544;9.642;2023-04-22T00:49:25;97652.63;;;9.95;96.24
20394;BME280;10356;50.544;9.642;2023-04-22T00:51:52;97652.63;;;9.95;96.04
20394;BME280;10356;50.544;9.642;2023-04-22T00:54:19;97657.56;;;9.98;96.11
20394;BME280;10356;50.544;9.642;2023-04-22T00:56:46;97669.00;;;9.86;96.86
20394;BME280;10356;50.544;9.642;2023-04-22T00:59:13;97667.63;;;9.82;96.86
20394;BME280;10356;50.544;9.642;2023-04-22T01:01:40;97667.63;;;9.82;96.95
20394;BME280;10356;50.544;9.642;2023-04-22T01:04:07;97667.88;;;9.79;96.90
20394;BME280;10356;50.544;9.642;2023-04-22T01:06:37;97662.94;;;9.76;97.17
20394;BME280;10356;50.544;9.642;2023-04-22T01:09:05;97668.13;;;9.76;97.39
20394;BME280;10356;50.544;9.642;2023-04-22T01:11:32;97665.53;;;9.76;97.28
20394;BME280;10356;50.544;9.642;2023-04-22T01:14:00;97672.63;;;9.74;97.30
20394;BME280;10356;50.544;9.642;2023-04-22T01:16:28;97673.59;;;9.73;97.31
20394;BME280;10356;50.544;9.642;2023-04-22T01:18:55;97667.56;;;9.72;97.46
20394;BME280;10356;50.544;9.642;2023-04-22T01:21:21;97667.00;;;9.69;97.67
20394;BME280;10356;50.544;9.642;2023-04-22T01:23:50;97679.03;;;9.70;97.83
20394;BME280;10356;50.544;9.642;2023-04-22T01:26:17;97671.25;;;9.70;97.90
20394;BME280;10356;50.544;9.642;2023-04-22T01:28:44;97672.44;;;9.66;98.05
20394;BME280;10356;50.544;9.642;2023-04-22T01:31:11;97676.56;;;9.68;97.86
20394;BME280;10356;50.544;9.642;2023-04-22T01:33:37;97672.44;;;9.66;98.13
20394;BME280;10356;50.544;9.642;2023-04-22T01:36:04;97670.81;;;9.65;98.22
20394;BME280;10356;50.544;9.642;2023-04-22T01:38:31;97670.13;;;9.63;98.33
20394;BME280;10356;50.544;9.642;2023-04-22T01:41:00;97675.31;;;9.63;98.53
20394;BME280;10356;50.544;9.642;2023-04-22T01:43:27;97679.81;;;9.61;98.79
20394;BME280;10356;50.544;9.642;2023-04-22T01:45:55;97676.25;;;9.62;99.11
20394;BME280;10356;50.544;9.642;2023-04-22T01:48:21;97674.34;;;9.64;99.87
20394;BME280;10356;50.544;9.642;2023-04-22T01:50:48;97671.66;;;9.65;99.43
20394;BME280;10356;50.544;9.642;2023-04-22T01:53:14;97675.19;;;9.64;99.24
20394;BME280;10356;50.544;9.642;2023-04-22T01:55:41;97671.88;;;9.62;99.20
20394;BME280;10356;50.544;9.642;2023-04-22T01:58:09;97676.25;;;9.62;99.09
20394;BME280;10356;50.544;9.642;2023-04-22T02:00:36;97672.94;;;9.60;99.13
20394;BME280;10356;50.544;9.642;2023-04-22T02:03:02;97676.38;;;9.60;99.50
20394;BME280;10356;50.544;9.642;2023-04-22T02:05:29;97679.81;;;9.61;99.77
20394;BME280;10356;50.544;9.642;2023-04-22T02:07:55;97671.88;;;9.62;100.00
20394;BME280;10356;50.544;9.642;2023-04-22T02:10:22;97674.34;;;9.64;100.00
20394;BME280;10356;50.544;9.642;2023-04-22T02:12:48;97678.47;;;9.66;100.00
20394;BME280;10356;50.544;9.642;2023-04-22T02:15:16;97688.66;;;9.69;100.00
20394;BME280;10356;50.544;9.642;2023-04-22T02:17:42;97679.75;;;9.72;100.00
20394;BME280;10356;50.544;9.642;2023-04-22T02:20:10;97677.13;;;9.72;100.00
20394;BME280;10356;50.544;9.642;2023-04-22T02:22:37;97672.78;;;9.72;100.00
20394;BME280;10356;50.544;9.642;2023-04-22T02:25:06;97677.97;;;9.72;100.00
20394;BME280;10356;50.544;9.642;2023-04-22T02:27:33;97680.72;;;9.71;100.00
20394;BME280;10356;50.544;9.642;2023-04-22T02:29:59;97678.34;;;9.68;100.00
20394;BME280;10356;50.544;9.642;2023-04-22T02:32:27;97676.00;;;9.65;100.00
20394;BME280;10356;50.544;9.642;2023-04-22T02:34:54;97677.66;;;9.66;100.00
20394;BME280;10356;50.544;9.642;2023-04-22T02:37:20;97671.06;;;9.62;100.00
20394;BME280;10356;50.544;9.642;2023-04-22T02:39:47;97671.44;;;9.57;100.00
20394;BME280;10356;50.544;9.642;2023-04-22T02:42:14;97672.53;;;9.55;100.00
20394;BME280;10356;50.544;9.642;2023-04-22T02:44:40;97674.44;;;9.53;100.00
20394;BME280;10356;50.544;9.642;2023-04-22T02:47:08;97678.38;;;9.47;100.00
20394;BME280;10356;50.544;9.642;2023-04-22T02:49:36;97688.75;;;9.47;100.00
20394;BME280;10356;50.544;9.642;2023-04-22T02:52:02;97686.53;;;9.43;100.00
20394;BME280;10356;50.544;9.642;2023-04-22T02:54:29;97676.97;;;9.43;100.00
20394;BME280;10356;50.544;9.642;2023-04-22T02:56:55;97675.16;;;9.44;100.00
20394;BME280;10356;50.544;9.642;2023-04-22T02:59:22;97678.59;;;9.44;100.00
20394;BME280;10356;50.544;9.642;2023-04-22T03:01:49;97681.34;;;9.43;100.00
20394;BME280;10356;50.544;9.642;2023-04-22T03:04:15;97683.22;;;9.41;100.00
20394;BME280;10356;50.544;9.642;2023-04-22T03:06:43;97685.84;;;9.41;100.00
20394;BME280;10356;50.544;9.642;2023-04-22T03:09:09;97690.06;;;9.42;100.00
20394;BME280;10356;50.544;9.642;2023-04-22T03:11:36;97681.56;;;9.40;100.00
20394;BME280;10356;50.544;9.642;2023-04-22T03:14:02;97681.84;;;9.37;100.00
20394;BME280;10356;50.544;9.642;2023-04-22T03:16:29;97687.03;;;9.37;100.00
20394;BME280;10356;50.544;9.642;2023-04-22T03:18:55;97686.78;;;9.40;100.00
20394;BME280;10356;50.544;9.642;2023-04-22T03:21:22;97684.88;;;9.42;100.00
20394;BME280;10356;50.544;9.642;2023-04-22T03:23:51;97677.91;;;9.42;100.00
20394;BME280;10356;50.544;9.642;2023-04-22T03:26:17;97669.28;;;9.42;100.00
20394;BME280;10356;50.544;9.642;2023-04-22T03:28:44;97680.16;;;9.36;100.00
20394;BME280;10356;50.544;9.642;2023-04-22T03:31:10;97673.06;;;9.38;100.00
20394;BME280;10356;50.544;9.642;2023-04-22T03:33:37;97678.53;;;9.35;100.00
20394;BME280;10356;50.544;9.642;2023-04-22T03:36:04;97674.28;;;9.33;100.00
20394;BME280;10356;50.544;9.642;2023-04-22T03:38:30;97673.56;;;9.31;100.00
20394;BME280;10356;50.544;9.642;2023-04-22T03:40:58;97677.28;;;9.29;100.00
20394;BME280;10356;50.544;9.642;2023-04-22T03:43:25;97672.78;;;9.31;100.00
20394;BME280;10356;50.544;9.642;2023-04-22T03:45:51;97677.28;;;9.29;100.00
20394;BME280;10356;50.544;9.642;2023-04-22T03:48:17;97677.97;;;9.31;100.00
20394;BME280;10356;50.544;9.642;2023-04-22T03:50:44;97679.03;;;9.28;100.00
20394;BME280;10356;50.544;9.642;2023-04-22T03:53:11;97680.66;;;9.29;100.00
20394;BME280;10356;50.544;9.642;2023-04-22T03:55:37;97668.28;;;9.33;100.00
20394;BME280;10356;50.544;9.642;2023-04-22T03:58:05;97676.63;;;9.37;100.00
20394;BME280;10356;50.544;9.642;2023-04-22T04:00:31;97674.47;;;9.42;100.00
20394;BME280;10356;50.544;9.642;2023-04-22T04:02:58;97660.78;;;9.40;100.00
20394;BME280;10356;50.544;9.642;2023-04-22T04:05:24;97674.59;;;9.40;100.00
20394;BME280;10356;50.544;9.642;2023-04-22T04:07:51;97662.44;;;9.41;100.00
20394;BME280;10356;50.544;9.642;2023-04-22T04:10:17;97660.78;;;9.40;100.00
20394;BME280;10356;50.544;9.642;2023-04-22T04:12:44;97661.59;;;9.40;100.00
20394;BME280;10356;50.544;9.642;2023-04-22T04:15:12;97663.50;;;9.38;100.00
20394;BME280;10356;50.544;9.642;2023-04-22T04:17:38;97661.03;;;9.37;100.00
20394;BME280;10356;50.544;9.642;2023-04-22T04:20:05;97659.38;;;9.36;100.00
20394;BME280;10356;50.544;9.642;2023-04-22T04:22:33;97668.13;;;9.35;100.00
20394;BME280;10356;50.544;9.642;2023-04-22T04:24:59;97671.66;;;9.33;100.00
20394;BME280;10356;50.544;9.642;2023-04-22T04:27:25;97668.13;;;9.35;100.00
20394;BME280;10356;50.544;9.642;2023-04-22T04:29:52;97674.28;;;9.33;100.00
20394;BME280;10356;50.544;9.642;2023-04-22T04:32:21;97671.56;;;9.35;100.00
20394;BME280;10356;50.544;9.642;2023-04-22T04:34:48;97670.28;;;9.29;100.00
20394;BME280;10356;50.544;9.642;2023-04-22T04:37:15;97671.94;;;9.30;100.00
20394;BME280;10356;50.544;9.642;2023-04-22T04:39:41;97670.28;;;9.29;100.00
20394;BME280;10356;50.544;9.642;2023-04-22T04:42:08;97674.66;;;9.29;100.00
20394;BME280;10356;50.544;9.642;2023-04-22T04:44:36;97671.47;;;9.25;100.00
20394;BME280;10356;50.544;9.642;2023-04-22T04:47:03;97667.47;;;9.21;100.00
20394;BME280;10356;50.544;9.642;2023-04-22T04:49:30;97664.06;;;9.21;100.00
20394;BME280;10356;50.544;9.642;2023-04-22T04:51:57;97664.63;;;9.24;100.00
20394;BME280;10356;50.544;9.642;2023-04-22T04:54:23;97671.25;;;9.28;100.00
20394;BME280;10356;50.544;9.642;2023-04-22T04:56:50;97671.94;;;9.30;100.00
20394;BME280;10356;50.544;9.642;2023-04-22T04:59:16;97671.94;;;9.30;100.00
20394;BME280;10356;50.544;9.642;2023-04-22T05:01:43;97680.16;;;9.36;100.00
20394;BME280;10356;50.544;9.642;2023-04-22T05:04:09;97678.03;;;9.41;100.00
20394;BME280;10356;50.544;9.642;2023-04-22T05:06:37;97674.66;;;9.50;100.00
20394;BME280;10356;50.544;9.642;2023-04-22T05:09:04;97683.34;;;9.60;100.00
20394;BME280;10356;50.544;9.642;2023-04-22T05:11:32;97679.63;;;9.73;100.00
20394;BME280;10356;50.544;9.642;2023-04-22T05:13:59;97684.38;;;9.89;100.00
20394;BME280;10356;50.544;9.642;2023-04-22T05:16:25;97687.34;;;10.05;100.00
20394;BME280;10356;50.544;9.642;2023-04-22T05:18:52;97680.63;;;10.23;100.00
20394;BME280;10356;50.544;9.642;2023-04-22T05:21:18;97686.69;;;10.33;99.98
20394;BME280;10356;50.544;9.642;2023-04-22T05:23:46;97685.66;;;10.55;99.34
20394;BME280;10356;50.544;9.642;2023-04-22T05:26:12;97685.34;;;10.78;98.23
20394;BME280;10356;50.544;9.642;2023-04-22T05:28:39;97677.13;;;11.02;96.84
20394;BME280;10356;50.544;9.642;2023-04-22T05:31:05;97681.25;;;11.24;96.18
20394;BME280;10356;50.544;9.642;2023-04-22T05:33:32;97679.63;;;11.42;95.03
20394;BME280;10356;50.544;9.642;2023-04-22T05:35:58;97679.31;;;11.64;94.03
20394;BME280;10356;50.544;9.642;2023-04-22T05:38:25;97677.97;;;11.79;92.92
20394;BME280;10356;50.544;9.642;2023-04-22T05:40:53;97667.34;;;12.00;92.59
20394;BME280;10356;50.544;9.642;2023-04-22T05:43:19;97666.44;;;12.18;91.32
20394;BME280;10356;50.544;9.642;2023-04-22T05:45:45;97668.22;;;12.27;90.13
20394;BME280;10356;50.544;9.642;2023-04-22T05:48:12;97670.69;;;12.29;90.89
20394;BME280;10356;50.544;9.642;2023-04-22T05:50:38;97664.16;;;12.42;90.50
20394;BME280;10356;50.544;9.642;2023-04-22T05:53:05;97666.66;;;12.44;90.77
20394;BME280;10356;50.544;9.642;2023-04-22T05:55:32;97664.56;;;12.47;91.37
20394;BME280;10356;50.544;9.642;2023-04-22T05:57:59;97666.44;;;12.55;91.44
20394;BME280;10356;50.544;9.642;2023-04-22T06:00:26;97672.59;;;12.63;91.90
20394;BME280;10356;50.544;9.642;2023-04-22T06:02:52;97676.25;;;12.71;92.32
20394;BME280;10356;50.544;9.642;2023-04-22T06:05:19;97665.53;;;12.74;93.50
20394;BME280;10356;50.544;9.642;2023-04-22T06:07:45;97658.03;;;12.79;93.49
20394;BME280;10356;50.544;9.642;2023-04-22T06:10:12;97657.38;;;12.77;93.43
20394;BME280;10356;50.544;9.642;2023-04-22T06:12:38;97655.00;;;12.83;93.26
20394;BME280;10356;50.544;9.642;2023-04-22T06:15:07;97655.31;;;12.80;90.53
20394;BME280;10356;50.544;9.642;2023-04-22T06:17:34;97650.28;;;12.87;89.16
20394;BME280;10356;50.544;9.642;2023-04-22T06:20:00;97654.41;;;12.89;88.19
20394;BME280;10356;50.544;9.642;2023-04-22T06:22:27;97648.38;;;12.89;88.74
20394;BME280;10356;50.544;9.642;2023-04-22T06:24:54;97649.19;;;12.89;89.61
20394;BME280;10356;50.544;9.642;2023-04-22T06:27:21;97646.44;;;12.91;90.20
20394;BME280;10356;50.544;9.642;2023-04-22T06:29:47;97649.41;;;12.96;88.78
20394;BME280;10356;50.544;9.642;2023-04-22T06:32:15;97646.06;;;13.03;86.70
20394;BME280;10356;50.544;9.642;2023-04-22T06:34:41;97649.59;;;13.12;85.44
20394;BME280;10356;50.544;9.642;2023-04-22T06:37:08;97649.00;;;13.18;82.58
20394;BME280;10356;50.544;9.642;2023-04-22T06:39:34;97648.19;;;13.35;81.03
20394;BME280;10356;50.544;9.642;2023-04-22T06:42:01;97642.72;;;13.46;81.10
20394;BME280;10356;50.544;9.642;2023-04-22T06:44:27;97654.59;;;13.58;79.89
20394;BME280;10356;50.544;9.642;2023-04-22T06:46:55;97654.88;;;13.73;78.16
20394;BME280;10356;50.544;9.642;2023-04-22T06:49:23;97646.28;;;13.88;77.09
20394;BME280;10356;50.544;9.642;2023-04-22T06:51:49;97639.53;;;14.03;77.08
20394;BME280;10356;50.544;9.642;2023-04-22T06:54:16;97643.88;;;14.20;76.85
20394;BME280;10356;50.544;9.642;2023-04-22T06:56:42;97650.03;;;14.37;73.97
20394;BME280;10356;50.544;9.642;2023-04-22T06:59:09;97652.22;;;14.50;75.24
20394;BME280;10356;50.544;9.642;2023-04-22T07:01:35;97652.13;;;14.67;72.51
20394;BME280;10356;50.544;9.642;2023-04-22T07:04:02;97653.31;;;14.81;72.10
20394;BME280;10356;50.544;9.642;2023-04-22T07:06:29;97659.91;;;14.93;71.65
20394;BME280;10356;50.544;9.642;2023-04-22T07:08:57;97652.41;;;15.14;69.92
20394;BME280;10356;50.544;9.642;2023-04-22T07:11:23;97651.13;;;15.34;69.51
20394;BME280;10356;50.544;9.642;2023-04-22T07:13:50;97646.84;;;15.41;66.36
20394;BME280;10356;50.544;9.642;2023-04-22T07:16:17;97649.03;;;15.62;67.26
20394;BME280;10356;50.544;9.642;2023-04-22T07:18:43;97655.09;;;15.86;67.64
20394;BME280;10356;50.544;9.642;2023-04-22T07:21:09;97658.03;;;16.08;64.11
20394;BME280;10356;50.544;9.642;2023-04-22T07:23:37;97658.25;;;16.37;62.97
20394;BME280;10356;50.544;9.642;2023-04-22T07:26:04;97650.97;;;16.63;63.87
20394;BME280;10356;50.544;9.642;2023-04-22T07:28:30;97648.72;;;16.91;62.11
20394;BME280;10356;50.544;9.642;2023-04-22T07:30:57;97654.56;;;17.23;58.87
20394;BME280;10356;50.544;9.642;2023-04-22T07:33:23;97667.28;;;17.42;56.21
20394;BME280;10356;50.544;9.642;2023-04-22T07:35:50;97653.97;;;17.67;56.77
20394;BME280;10356;50.544;9.642;2023-04-22T07:38:16;97657.50;;;17.74;55.62
20394;BME280;10356;50.544;9.642;2023-04-22T07:40:44;97657.66;;;17.57;55.08
20394;BME280;10356;50.544;9.642;2023-04-22T07:43:11;97658.94;;;17.61;56.23
20394;BME280;10356;50.544;9.642;2023-04-22T07:45:37;97659.25;;;17.67;59.03
20394;BME280;10356;50.544;9.642;2023-04-22T07:48:04;97661.38;;;17.40;55.63
20394;BME280;10356;50.544;9.642;2023-04-22T07:50:30;97651.66;;;17.63;56.99
20394;BME280;10356;50.544;9.642;2023-04-22T07:52:57;97658.47;;;17.58;57.91
20394;BME280;10356;50.544;9.642;2023-04-22T07:55:23;97651.03;;;17.61;57.34
20394;BME280;10356;50.544;9.642;2023-04-22T07:57:51;97645.19;;;17.51;57.18
20394;BME280;10356;50.544;9.642;2023-04-22T08:00:18;97642.66;;;17.58;58.45
20394;BME280;10356;50.544;9.642;2023-04-22T08:02:44;97646.41;;;17.63;56.53
20394;BME280;10356;50.544;9.642;2023-04-22T08:05:11;97643.22;;;17.91;57.63
20394;BME280;10356;50.544;9.642;2023-04-22T08:07:38;97625.50;;;18.28;57.42
20394;BME280;10356;50.544;9.642;2023-04-22T08:10:06;97630.53;;;18.38;52.73
20394;BME280;10356;50.544;9.642;2023-04-22T08:12:33;97626.88;;;18.68;54.34
20394;BME280;10356;50.544;9.642;2023-04-22T08:15:01;97629.84;;;19.15;53.65
20394;BME280;10356;50.544;9.642;2023-04-22T08:17:28;97625.06;;;19.25;51.22
20394;BME280;10356;50.544;9.642;2023-04-22T08:19:54;97621.28;;;19.49;51.33
20394;BME280;10356;50.544;9.642;2023-04-22T08:22:21;97618.88;;;19.54;48.96
20394;BME280;10356;50.544;9.642;2023-04-22T08:24:48;97619.41;;;19.71;50.60
20394;BME280;10356;50.544;9.642;2023-04-22T08:27:14;97615.47;;;19.88;49.16
20394;BME280;10356;50.544;9.642;2023-04-22T08:29:41;97620.19;;;20.20;50.08
20394;BME280;10356;50.544;9.642;2023-04-22T08:32:09;97612.78;;;20.09;46.93
20394;BME280;10356;50.544;9.642;2023-04-22T08:34:35;97619.69;;;20.10;46.66
20394;BME280;10356;50.544;9.642;2023-04-22T08:37:02;97614.03;;;20.13;46.41
20394;BME280;10356;50.544;9.642;2023-04-22T08:39:28;97621.84;;;20.21;45.45
20394;BME280;10356;50.544;9.642;2023-04-22T08:41:55;97621.38;;;19.90;45.64
20394;BME280;10356;50.544;9.642;2023-04-22T08:44:24;97608.16;;;19.90;45.29
20394;BME280;10356;50.544;9.642;2023-04-22T08:46:51;97613.28;;;20.19;45.87
20394;BME280;10356;50.544;9.642;2023-04-22T08:49:22;97619.63;;;20.65;44.85
20394;BME280;10356;50.544;9.642;2023-04-22T08:51:49;97615.72;;;20.21;45.19
20394;BME280;10356;50.544;9.642;2023-04-22T08:54:17;97616.81;;;20.73;44.75
20394;BME280;10356;50.544;9.642;2023-04-22T08:56:44;97620.31;;;20.87;43.66
20394;BME280;10356;50.544;9.642;2023-04-22T08:59:11;97614.00;;;20.81;43.55
20394;BME280;10356;50.544;9.642;2023-04-22T09:01:39;97606.63;;;20.77;44.08
20394;BME280;10356;50.544;9.642;2023-04-22T09:04:08;97616.81;;;20.73;44.53
20394;BME280;10356;50.544;9.642;2023-04-22T09:06:37;97614.44;;;20.91;43.44
20394;BME280;10356;50.544;9.642;2023-04-22T09:09:03;97606.44;;;21.39;42.37
20394;BME280;10356;50.544;9.642;2023-04-22T09:11:31;97603.38;;;21.68;42.04
20394;BME280;10356;50.544;9.642;2023-04-22T09:13:58;97602.78;;;21.99;42.31
20394;BME280;10356;50.544;9.642;2023-04-22T09:16:24;97609.28;;;21.96;41.24
20394;BME280;10356;50.544;9.642;2023-04-22T09:18:51;97606.81;;;22.14;40.89
20394;BME280;10356;50.544;9.642;2023-04-22T09:21:17;97611.34;;;21.94;41.95
20394;BME280;10356;50.544;9.642;2023-04-22T09:23:47;97597.66;;;21.71;41.90
20394;BME280;10356;50.544;9.642;2023-04-22T09:26:14;97607.47;;;21.51;41.59
20394;BME280;10356;50.544;9.642;2023-04-22T09:28:48;97603.97;;;21.31;42.50
20394;BME280;10356;50.544;9.642;2023-04-22T09:31:14;97604.41;;;21.60;42.14
20394;BME280;10356;50.544;9.642;2023-04-22T09:33:46;97603.59;;;21.86;40.06
20394;BME280;10356;50.544;9.642;2023-04-22T09:36:13;97600.31;;;21.71;40.60
20394;BME280;10356;50.544;9.642;2023-04-22T09:38:39;97605.78;;;21.30;42.25
20394;BME280;10356;50.544;9.642;2023-04-22T09:41:09;97607.84;;;21.48;43.54
20394;BME280;10356;50.544;9.642;2023-04-22T09:43:37;97607.66;;;21.69;40.56
20394;BME280;10356;50.544;9.642;2023-04-22T09:46:03;97604.19;;;21.88;41.11
20394;BME280;10356;50.544;9.642;2023-04-22T09:48:30;97596.19;;;22.27;41.23
20394;BME280;10356;50.544;9.642;2023-04-22T09:50:56;97594.19;;;22.03;41.49
20394;BME280;10356;50.544;9.642;2023-04-22T09:53:23;97607.47;;;21.97;40.77
20394;BME280;10356;50.544;9.642;2023-04-22T09:55:51;97598.41;;;22.30;41.10
20394;BME280;10356;50.544;9.642;2023-04-22T09:58:20;97596.72;;;22.49;41.72
20394;BME280;10356;50.544;9.642;2023-04-22T10:00:49;97592.41;;;22.54;40.23
20394;BME280;10356;50.544;9.642;2023-04-22T10:03:16;97590.59;;;22.48;40.63
20394;BME280;10356;50.544;9.642;2023-04-22T10:05:44;97590.72;;;22.80;41.30
20394;BME280;10356;50.544;9.642;2023-04-22T10:08:11;97586.50;;;22.59;40.92
20394;BME280;10356;50.544;9.642;2023-04-22T10:10:39;97586.59;;;22.84;40.41
20394;BME280;10356;50.544;9.642;2023-04-22T10:13:06;97584.59;;;22.73;40.65
20394;BME280;10356;50.544;9.642;2023-04-22T10:15:37;97578.56;;;23.28;38.77
20394;BME280;10356;50.544;9.642;2023-04-22T10:18:06;97575.72;;;22.92;39.99
20394;BME280;10356;50.544;9.642;2023-04-22T10:20:35;97578.53;;;22.66;39.07
20394;BME280;10356;50.544;9.642;2023-04-22T10:23:03;97583.34;;;22.82;39.87
20394;BME280;10356;50.544;9.642;2023-04-22T10:25:30;97583.31;;;22.24;41.50
20394;BME280;10356;50.544;9.642;2023-04-22T10:28:01;97583.53;;;22.16;40.54
20394;BME280;10356;50.544;9.642;2023-04-22T10:30:29;97578.16;;;22.42;39.34
20394;BME280;10356;50.544;9.642;2023-04-22T10:33:34;97576.81;;;22.78;38.05
20394;BME280;10356;50.544;9.642;2023-04-22T10:36:06;97582.41;;;22.63;39.35
20394;BME280;10356;50.544;9.642;2023-04-22T10:38:33;97564.03;;;22.62;39.22
20394;BME280;10356;50.544;9.642;2023-04-22T10:41:00;97569.94;;;22.64;40.18
20394;BME280;10356;50.544;9.642;2023-04-22T10:43:39;97569.97;;;22.50;40.03
20394;BME280;10356;50.544;9.642;2023-04-22T10:46:06;97563.09;;;22.81;38.72
20394;BME280;10356;50.544;9.642;2023-04-22T10:48:47;97572.28;;;23.54;39.11
20394;BME280;10356;50.544;9.642;2023-04-22T10:51:37;97567.94;;;23.34;38.08
20394;BME280;10356;50.544;9.642;2023-04-22T10:54:04;97564.81;;;23.38;38.64
20394;BME280;10356;50.544;9.642;2023-04-22T10:56:30;97562.09;;;22.82;38.35
20394;BME280;10356;50.544;9.642;2023-04-22T10:58:57;97565.19;;;23.10;39.47
20394;BME280;10356;50.544;9.642;2023-04-22T11:01:26;97560.59;;;23.23;37.80
20394;BME280;10356;50.544;9.642;2023-04-22T11:04:20;97561.53;;;23.42;38.61
20394;BME280;10356;50.544;9.642;2023-04-22T11:07:12;97561.50;;;23.11;37.89
20394;BME280;10356;50.544;9.642;2023-04-22T11:09:39;97558.50;;;23.01;39.65
20394;BME280;10356;50.544;9.642;2023-04-22T11:15:07;97558.19;;;23.15;39.52
20394;BME280;10356;50.544;9.642;2023-04-22T11:17:34;97551.50;;;23.44;37.82
20394;BME280;10356;50.544;9.642;2023-04-22T11:20:04;97546.94;;;23.51;38.53
20394;BME280;10356;50.544;9.642;2023-04-22T11:22:34;97550.56;;;23.57;39.07
20394;BME280;10356;50.544;9.642;2023-04-22T11:25:01;97551.44;;;23.75;37.08
20394;BME280;10356;50.544;9.642;2023-04-22T11:27:28;97550.84;;;23.73;37.51
20394;BME280;10356;50.544;9.642;2023-04-22T11:30:01;97555.06;;;23.56;35.62
20394;BME280;10356;50.544;9.642;2023-04-22T11:32:28;97547.13;;;23.25;35.56
20394;BME280;10356;50.544;9.642;2023-04-22T11:34:55;97545.75;;;23.47;35.92
20394;BME280;10356;50.544;9.642;2023-04-22T11:37:23;97548.72;;;23.26;35.16
20394;BME280;10356;50.544;9.642;2023-04-22T11:39:50;97543.13;;;23.09;36.36
20394;BME280;10356;50.544;9.642;2023-04-22T11:42:19;97548.44;;;23.09;35.11
20394;BME280;10356;50.544;9.642;2023-04-22T11:44:46;97540.09;;;23.37;35.01
20394;BME280;10356;50.544;9.642;2023-04-22T11:47:13;97543.72;;;23.43;35.73
20394;BME280;10356;50.544;9.642;2023-04-22T11:49:39;97546.75;;;22.84;36.16
20394;BME280;10356;50.544;9.642;2023-04-22T11:52:07;97543.78;;;22.61;35.77
20394;BME280;10356;50.544;9.642;2023-04-22T11:54:36;97539.91;;;22.63;36.91
20394;BME280;10356;50.544;9.642;2023-04-22T11:57:04;97538.84;;;22.71;35.62
20394;BME280;10356;50.544;9.642;2023-04-22T11:59:32;97544.06;;;22.39;36.91
20394;BME280;10356;50.544;9.642;2023-04-22T12:01:59;97539.09;;;21.99;36.71
20394;BME280;10356;50.544;9.642;2023-04-22T12:04:25;97533.78;;;21.99;38.41
20394;BME280;10356;50.544;9.642;2023-04-22T12:06:52;97532.50;;;22.14;39.07
20394;BME280;10356;50.544;9.642;2023-04-22T12:09:18;97528.84;;;22.15;38.42
20394;BME280;10356;50.544;9.642;2023-04-22T12:11:46;97531.81;;;22.38;38.89
20394;BME280;10356;50.544;9.642;2023-04-22T12:14:12;97531.94;;;22.63;37.58
20394;BME280;10356;50.544;9.642;2023-04-22T12:16:40;97527.06;;;22.53;39.21
20394;BME280;10356;50.544;9.642;2023-04-22T12:19:07;97524.59;;;22.59;37.94
20394;BME280;10356;50.544;9.642;2023-04-22T12:21:34;97526.72;;;22.88;37.44
20394;BME280;10356;50.544;9.642;2023-04-22T12:24:01;97518.50;;;22.58;38.54
20394;BME280;10356;50.544;9.642;2023-04-22T12:26:29;97516.94;;;22.37;37.73
20394;BME280;10356;50.544;9.642;2023-04-22T12:28:58;97513.91;;;22.78;37.67
20394;BME280;10356;50.544;9.642;2023-04-22T12:31:25;97511.25;;;23.03;37.04
20394;BME280;10356;50.544;9.642;2023-04-22T12:33:52;97521.78;;;23.22;37.83
20394;BME280;10356;50.544;9.642;2023-04-22T12:36:19;97518.34;;;23.15;38.07
20394;BME280;10356;50.544;9.642;2023-04-22T12:38:46;97512.38;;;23.20;37.48
20394;BME280;10356;50.544;9.642;2023-04-22T12:41:13;97512.50;;;23.56;37.67
20394;BME280;10356;50.544;9.642;2023-04-22T12:43:40;97515.97;;;23.81;37.04
20394;BME280;10356;50.544;9.642;2023-04-22T12:46:08;97506.53;;;24.22;36.32
20394;BME280;10356;50.544;9.642;2023-04-22T12:48:35;97502.13;;;24.15;37.27
20394;BME280;10356;50.544;9.642;2023-04-22T12:51:02;97507.28;;;24.29;37.11
20394;BME280;10356;50.544;9.642;2023-04-22T12:53:29;97508.44;;;24.33;35.50
20394;BME280;10356;50.544;9.642;2023-04-22T12:55:55;97497.75;;;24.51;34.12
20394;BME280;10356;50.544;9.642;2023-04-22T12:58:23;97501.41;;;24.74;34.13
20394;BME280;10356;50.544;9.642;2023-04-22T13:00:49;97493.97;;;24.76;35.07
20394;BME280;10356;50.544;9.642;2023-04-22T13:03:17;97486.53;;;24.49;34.72
20394;BME280;10356;50.544;9.642;2023-04-22T13:05:44;97485.34;;;24.45;35.24